Belmar, New Jersey
Current Conditions -  °F | °C
As of 3:15 PM on Sunday 25 Jan 2015 (Local Time) from KBLM Reporting Station
Broken Clouds Broken Clouds  
Wind Chill: 37°   Ceiling: 3900
Heat Index: 43°   Visibility: 10mi
Dew Point: 27°   Wind: 12mph
Humidity: 53%   Direction: 280°W
Pressure: 29.8"   Gusts: 16mph
Location:  40.18°N, 74.02°W
Report Text: KBLM 252015Z AUTO 28010G14KT 10SM BKN039 BKN046 06/M03 A2980 RMK AO1
Loading
Personal Weather Stations






























Interactive Weather Map New forecast layout! Learn more

10-Day Weather Forecast

Advertisements
Track Severe Weather on mobile